Terminal Aerodrome Forecast
Issued by NWS Albuquerque, NM

Home | Current Version | Previous Version | Text Only | Print | Product List | Glossary On
Versions: 1 2 3 4 5 6 7 8 9 10 11 12 13
000
FTUS45 KABQ 252300
TAFABQ
TAF
KABQ 252320Z 2600/2624 32012KT P6SM SCT100
     FM260200 VRB05KT P6SM FEW140
     FM262000 33012KT P6SM SCT100=

USA.gov is the U.S. government's official web portal to all federal, state and local government web resources and services.